sensor_id;sensor_type;location;lat;lon;timestamp;P1;durP1;ratioP1;P2;durP2;ratioP2
72611;SDS011;60655;52.182;4.474;2022-12-22T00:01:19;24.92;;;10.35;;
72611;SDS011;60655;52.182;4.474;2022-12-22T00:03:39;25.45;;;10.65;;
72611;SDS011;60655;52.182;4.474;2022-12-22T00:05:58;24.90;;;10.13;;
72611;SDS011;60655;52.182;4.474;2022-12-22T00:08:18;26.23;;;10.85;;
72611;SDS011;60655;52.182;4.474;2022-12-22T00:10:37;27.90;;;11.32;;
72611;SDS011;60655;52.182;4.474;2022-12-22T00:12:57;25.13;;;10.77;;
72611;SDS011;60655;52.182;4.474;2022-12-22T00:15:17;23.40;;;10.40;;
72611;SDS011;60655;52.182;4.474;2022-12-22T00:17:37;27.58;;;11.35;;
72611;SDS011;60655;52.182;4.474;2022-12-22T00:19:56;32.20;;;12.43;;
72611;SDS011;60655;52.182;4.474;2022-12-22T00:22:20;25.85;;;11.68;;
72611;SDS011;60655;52.182;4.474;2022-12-22T00:24:41;23.33;;;9.93;;
72611;SDS011;60655;52.182;4.474;2022-12-22T00:27:00;30.42;;;12.15;;
72611;SDS011;60655;52.182;4.474;2022-12-22T00:29:20;30.48;;;12.80;;
72611;SDS011;60655;52.182;4.474;2022-12-22T00:31:40;31.05;;;13.32;;
72611;SDS011;60655;52.182;4.474;2022-12-22T00:34:00;27.95;;;12.13;;
72611;SDS011;60655;52.182;4.474;2022-12-22T00:36:20;29.38;;;12.20;;
72611;SDS011;60655;52.182;4.474;2022-12-22T00:38:42;30.42;;;12.98;;
72611;SDS011;60655;52.182;4.474;2022-12-22T00:41:01;37.55;;;15.73;;
72611;SDS011;60655;52.182;4.474;2022-12-22T00:43:22;29.38;;;12.63;;
72611;SDS011;60655;52.182;4.474;2022-12-22T00:45:41;26.80;;;11.23;;
72611;SDS011;60655;52.182;4.474;2022-12-22T00:48:01;30.17;;;12.48;;
72611;SDS011;60655;52.182;4.474;2022-12-22T00:50:22;27.73;;;12.18;;
72611;SDS011;60655;52.182;4.474;2022-12-22T00:52:48;33.03;;;13.93;;
72611;SDS011;60655;52.182;4.474;2022-12-22T00:55:11;34.58;;;14.65;;
72611;SDS011;60655;52.182;4.474;2022-12-22T00:57:32;34.75;;;12.88;;
72611;SDS011;60655;52.182;4.474;2022-12-22T00:59:52;36.22;;;13.70;;
72611;SDS011;60655;52.182;4.474;2022-12-22T01:02:14;35.72;;;14.30;;
72611;SDS011;60655;52.182;4.474;2022-12-22T01:06:53;29.50;;;11.60;;
72611;SDS011;60655;52.182;4.474;2022-12-22T01:09:13;26.98;;;11.30;;
72611;SDS011;60655;52.182;4.474;2022-12-22T01:11:33;31.23;;;13.57;;
72611;SDS011;60655;52.182;4.474;2022-12-22T01:13:54;29.88;;;11.82;;
72611;SDS011;60655;52.182;4.474;2022-12-22T01:16:13;33.38;;;13.70;;
72611;SDS011;60655;52.182;4.474;2022-12-22T01:18:33;32.10;;;12.40;;
72611;SDS011;60655;52.182;4.474;2022-12-22T01:20:52;29.38;;;11.90;;
72611;SDS011;60655;52.182;4.474;2022-12-22T01:23:12;34.03;;;14.07;;
72611;SDS011;60655;52.182;4.474;2022-12-22T01:25:32;33.25;;;13.90;;
72611;SDS011;60655;52.182;4.474;2022-12-22T01:27:51;30.73;;;13.05;;
72611;SDS011;60655;52.182;4.474;2022-12-22T01:30:11;31.73;;;12.93;;
72611;SDS011;60655;52.182;4.474;2022-12-22T01:32:30;34.03;;;13.73;;
72611;SDS011;60655;52.182;4.474;2022-12-22T01:34:50;36.72;;;14.82;;
72611;SDS011;60655;52.182;4.474;2022-12-22T01:37:09;35.83;;;13.85;;
72611;SDS011;60655;52.182;4.474;2022-12-22T01:39:29;33.72;;;13.23;;
72611;SDS011;60655;52.182;4.474;2022-12-22T01:41:48;40.25;;;15.57;;
72611;SDS011;60655;52.182;4.474;2022-12-22T01:44:15;38.75;;;15.57;;
72611;SDS011;60655;52.182;4.474;2022-12-22T01:46:39;32.53;;;13.93;;
72611;SDS011;60655;52.182;4.474;2022-12-22T01:49:00;28.50;;;11.93;;
72611;SDS011;60655;52.182;4.474;2022-12-22T01:51:22;32.10;;;13.23;;
72611;SDS011;60655;52.182;4.474;2022-12-22T01:53:44;37.25;;;14.63;;
72611;SDS011;60655;52.182;4.474;2022-12-22T01:56:05;28.65;;;11.95;;
72611;SDS011;60655;52.182;4.474;2022-12-22T01:58:29;33.97;;;13.63;;
72611;SDS011;60655;52.182;4.474;2022-12-22T02:00:55;32.15;;;12.20;;
72611;SDS011;60655;52.182;4.474;2022-12-22T02:03:16;37.92;;;15.13;;
72611;SDS011;60655;52.182;4.474;2022-12-22T02:05:39;37.38;;;14.27;;
72611;SDS011;60655;52.182;4.474;2022-12-22T02:08:16;31.52;;;13.65;;
72611;SDS011;60655;52.182;4.474;2022-12-22T02:10:54;35.72;;;14.93;;
72611;SDS011;60655;52.182;4.474;2022-12-22T02:13:25;36.28;;;14.23;;
72611;SDS011;60655;52.182;4.474;2022-12-22T02:16:00;32.65;;;12.13;;
72611;SDS011;60655;52.182;4.474;2022-12-22T02:18:41;37.80;;;14.60;;
72611;SDS011;60655;52.182;4.474;2022-12-22T02:21:17;35.47;;;13.13;;
72611;SDS011;60655;52.182;4.474;2022-12-22T02:23:45;39.33;;;13.88;;
72611;SDS011;60655;52.182;4.474;2022-12-22T02:26:46;33.33;;;13.15;;
72611;SDS011;60655;52.182;4.474;2022-12-22T02:29:09;37.33;;;15.68;;
72611;SDS011;60655;52.182;4.474;2022-12-22T02:31:37;32.65;;;13.50;;
72611;SDS011;60655;52.182;4.474;2022-12-22T02:33:58;32.85;;;12.88;;
72611;SDS011;60655;52.182;4.474;2022-12-22T02:42:04;32.78;;;14.15;;
72611;SDS011;60655;52.182;4.474;2022-12-22T02:47:14;38.45;;;15.02;;
72611;SDS011;60655;52.182;4.474;2022-12-22T02:49:57;41.08;;;14.80;;
72611;SDS011;60655;52.182;4.474;2022-12-22T02:52:27;38.90;;;15.00;;
72611;SDS011;60655;52.182;4.474;2022-12-22T02:54:51;36.05;;;12.93;;
72611;SDS011;60655;52.182;4.474;2022-12-22T02:57:10;38.67;;;14.20;;
72611;SDS011;60655;52.182;4.474;2022-12-22T02:59:34;39.45;;;14.13;;
72611;SDS011;60655;52.182;4.474;2022-12-22T03:01:54;36.25;;;14.25;;
72611;SDS011;60655;52.182;4.474;2022-12-22T03:04:14;33.30;;;13.95;;
72611;SDS011;60655;52.182;4.474;2022-12-22T03:06:33;32.95;;;13.68;;
72611;SDS011;60655;52.182;4.474;2022-12-22T03:08:53;34.92;;;13.15;;
72611;SDS011;60655;52.182;4.474;2022-12-22T03:11:12;36.97;;;14.50;;
72611;SDS011;60655;52.182;4.474;2022-12-22T03:13:32;37.20;;;13.70;;
72611;SDS011;60655;52.182;4.474;2022-12-22T03:15:51;43.63;;;16.52;;
72611;SDS011;60655;52.182;4.474;2022-12-22T03:18:11;33.20;;;13.30;;
72611;SDS011;60655;52.182;4.474;2022-12-22T03:20:31;37.28;;;15.02;;
72611;SDS011;60655;52.182;4.474;2022-12-22T03:22:51;36.17;;;14.73;;
72611;SDS011;60655;52.182;4.474;2022-12-22T03:25:11;35.90;;;13.98;;
72611;SDS011;60655;52.182;4.474;2022-12-22T03:27:30;33.25;;;14.32;;
72611;SDS011;60655;52.182;4.474;2022-12-22T03:29:31;39.95;;;14.23;;
72611;SDS011;60655;52.182;4.474;2022-12-22T03:31:32;37.40;;;15.13;;
72611;SDS011;60655;52.182;4.474;2022-12-22T03:33:33;34.85;;;13.00;;
72611;SDS011;60655;52.182;4.474;2022-12-22T03:35:34;35.22;;;13.93;;
72611;SDS011;60655;52.182;4.474;2022-12-22T03:37:35;38.83;;;14.55;;
72611;SDS011;60655;52.182;4.474;2022-12-22T03:39:36;34.22;;;13.50;;
72611;SDS011;60655;52.182;4.474;2022-12-22T03:41:37;38.13;;;14.27;;
72611;SDS011;60655;52.182;4.474;2022-12-22T03:43:56;38.60;;;14.45;;
72611;SDS011;60655;52.182;4.474;2022-12-22T03:46:16;36.42;;;13.57;;
72611;SDS011;60655;52.182;4.474;2022-12-22T03:48:29;36.75;;;13.73;;
72611;SDS011;60655;52.182;4.474;2022-12-22T03:50:32;36.30;;;13.80;;
72611;SDS011;60655;52.182;4.474;2022-12-22T03:52:35;30.08;;;12.80;;
72611;SDS011;60655;52.182;4.474;2022-12-22T03:54:36;34.92;;;13.70;;
72611;SDS011;60655;52.182;4.474;2022-12-22T03:56:37;40.47;;;14.93;;
72611;SDS011;60655;52.182;4.474;2022-12-22T03:58:39;33.05;;;14.18;;
72611;SDS011;60655;52.182;4.474;2022-12-22T04:00:39;37.03;;;13.75;;
72611;SDS011;60655;52.182;4.474;2022-12-22T04:02:40;35.33;;;13.65;;
72611;SDS011;60655;52.182;4.474;2022-12-22T04:04:41;40.88;;;14.30;;
72611;SDS011;60655;52.182;4.474;2022-12-22T04:06:43;38.25;;;12.88;;
72611;SDS011;60655;52.182;4.474;2022-12-22T04:08:45;43.25;;;14.73;;
72611;SDS011;60655;52.182;4.474;2022-12-22T04:10:46;36.05;;;13.23;;
72611;SDS011;60655;52.182;4.474;2022-12-22T04:13:05;42.38;;;13.43;;
72611;SDS011;60655;52.182;4.474;2022-12-22T04:15:06;34.30;;;12.13;;
72611;SDS011;60655;52.182;4.474;2022-12-22T04:17:08;59.63;;;13.25;;
72611;SDS011;60655;52.182;4.474;2022-12-22T04:19:09;53.28;;;12.18;;
72611;SDS011;60655;52.182;4.474;2022-12-22T04:21:11;76.22;;;12.88;;
72611;SDS011;60655;52.182;4.474;2022-12-22T04:23:12;72.18;;;12.05;;
72611;SDS011;60655;52.182;4.474;2022-12-22T04:25:14;71.90;;;13.48;;
72611;SDS011;60655;52.182;4.474;2022-12-22T04:27:15;63.67;;;10.88;;
72611;SDS011;60655;52.182;4.474;2022-12-22T04:29:17;39.05;;;10.75;;
72611;SDS011;60655;52.182;4.474;2022-12-22T04:31:18;40.75;;;11.98;;
72611;SDS011;60655;52.182;4.474;2022-12-22T04:33:20;57.53;;;11.95;;
72611;SDS011;60655;52.182;4.474;2022-12-22T04:35:21;52.60;;;10.27;;
72611;SDS011;60655;52.182;4.474;2022-12-22T04:37:22;46.33;;;9.30;;
72611;SDS011;60655;52.182;4.474;2022-12-22T04:39:23;66.97;;;10.07;;
72611;SDS011;60655;52.182;4.474;2022-12-22T04:41:24;32.53;;;9.48;;
72611;SDS011;60655;52.182;4.474;2022-12-22T04:43:25;38.53;;;9.07;;
72611;SDS011;60655;52.182;4.474;2022-12-22T04:45:27;50.97;;;9.52;;
72611;SDS011;60655;52.182;4.474;2022-12-22T04:47:28;48.75;;;9.27;;
72611;SDS011;60655;52.182;4.474;2022-12-22T04:49:30;69.65;;;9.48;;
72611;SDS011;60655;52.182;4.474;2022-12-22T04:51:31;43.83;;;8.50;;
72611;SDS011;60655;52.182;4.474;2022-12-22T04:53:32;31.00;;;7.60;;
72611;SDS011;60655;52.182;4.474;2022-12-22T04:55:33;39.88;;;8.45;;
72611;SDS011;60655;52.182;4.474;2022-12-22T04:57:35;37.90;;;8.27;;
72611;SDS011;60655;52.182;4.474;2022-12-22T04:59:36;44.28;;;8.82;;
72611;SDS011;60655;52.182;4.474;2022-12-22T05:01:37;34.58;;;7.85;;
72611;SDS011;60655;52.182;4.474;2022-12-22T05:03:39;34.85;;;7.90;;
72611;SDS011;60655;52.182;4.474;2022-12-22T05:05:40;32.20;;;7.47;;
72611;SDS011;60655;52.182;4.474;2022-12-22T05:07:41;30.40;;;7.45;;
72611;SDS011;60655;52.182;4.474;2022-12-22T05:09:43;44.83;;;8.52;;
72611;SDS011;60655;52.182;4.474;2022-12-22T05:11:45;45.83;;;7.85;;
72611;SDS011;60655;52.182;4.474;2022-12-22T05:13:46;45.10;;;7.93;;
72611;SDS011;60655;52.182;4.474;2022-12-22T05:17:49;37.72;;;6.93;;
72611;SDS011;60655;52.182;4.474;2022-12-22T05:19:50;23.73;;;6.55;;
72611;SDS011;60655;52.182;4.474;2022-12-22T05:21:51;43.92;;;6.55;;
72611;SDS011;60655;52.182;4.474;2022-12-22T05:23:52;26.35;;;6.35;;
72611;SDS011;60655;52.182;4.474;2022-12-22T05:25:53;27.48;;;6.22;;
72611;SDS011;60655;52.182;4.474;2022-12-22T05:27:54;39.83;;;7.22;;
72611;SDS011;60655;52.182;4.474;2022-12-22T05:29:55;64.45;;;7.60;;
72611;SDS011;60655;52.182;4.474;2022-12-22T05:31:56;19.52;;;5.97;;
72611;SDS011;60655;52.182;4.474;2022-12-22T05:33:57;23.52;;;6.38;;
72611;SDS011;60655;52.182;4.474;2022-12-22T05:35:58;25.25;;;6.00;;
72611;SDS011;60655;52.182;4.474;2022-12-22T05:40:00;39.40;;;6.30;;
72611;SDS011;60655;52.182;4.474;2022-12-22T05:42:01;28.13;;;6.00;;
72611;SDS011;60655;52.182;4.474;2022-12-22T05:44:02;31.17;;;6.32;;
72611;SDS011;60655;52.182;4.474;2022-12-22T05:46:04;94.32;;;7.63;;
72611;SDS011;60655;52.182;4.474;2022-12-22T05:48:07;78.63;;;7.50;;
72611;SDS011;60655;52.182;4.474;2022-12-22T05:50:09;24.75;;;5.93;;
72611;SDS011;60655;52.182;4.474;2022-12-22T05:52:11;20.27;;;5.72;;
72611;SDS011;60655;52.182;4.474;2022-12-22T05:54:12;27.45;;;6.53;;
72611;SDS011;60655;52.182;4.474;2022-12-22T05:56:13;15.98;;;5.53;;
72611;SDS011;60655;52.182;4.474;2022-12-22T05:58:14;14.30;;;5.28;;
72611;SDS011;60655;52.182;4.474;2022-12-22T06:00:15;16.85;;;5.50;;
72611;SDS011;60655;52.182;4.474;2022-12-22T06:02:17;18.88;;;5.60;;
72611;SDS011;60655;52.182;4.474;2022-12-22T06:04:18;15.45;;;5.47;;
72611;SDS011;60655;52.182;4.474;2022-12-22T06:06:19;17.55;;;5.68;;
72611;SDS011;60655;52.182;4.474;2022-12-22T06:08:21;15.60;;;5.30;;
72611;SDS011;60655;52.182;4.474;2022-12-22T06:10:22;12.95;;;5.03;;
72611;SDS011;60655;52.182;4.474;2022-12-22T06:12:23;15.30;;;5.20;;
72611;SDS011;60655;52.182;4.474;2022-12-22T06:14:24;15.07;;;6.20;;
72611;SDS011;60655;52.182;4.474;2022-12-22T06:16:25;15.13;;;5.72;;
72611;SDS011;60655;52.182;4.474;2022-12-22T06:18:26;15.95;;;5.65;;
72611;SDS011;60655;52.182;4.474;2022-12-22T06:20:27;14.63;;;5.53;;
72611;SDS011;60655;52.182;4.474;2022-12-22T06:22:28;12.98;;;5.47;;
72611;SDS011;60655;52.182;4.474;2022-12-22T06:24:29;12.88;;;5.80;;
72611;SDS011;60655;52.182;4.474;2022-12-22T06:26:30;14.93;;;5.40;;
72611;SDS011;60655;52.182;4.474;2022-12-22T06:28:31;19.17;;;5.28;;
72611;SDS011;60655;52.182;4.474;2022-12-22T06:30:32;12.77;;;4.75;;
72611;SDS011;60655;52.182;4.474;2022-12-22T06:32:37;13.00;;;4.82;;
72611;SDS011;60655;52.182;4.474;2022-12-22T06:34:39;13.75;;;4.50;;
72611;SDS011;60655;52.182;4.474;2022-12-22T06:36:40;11.18;;;4.82;;
72611;SDS011;60655;52.182;4.474;2022-12-22T06:40:42;11.68;;;4.63;;
72611;SDS011;60655;52.182;4.474;2022-12-22T06:45:02;13.05;;;4.90;;
72611;SDS011;60655;52.182;4.474;2022-12-22T06:47:03;13.88;;;5.95;;
72611;SDS011;60655;52.182;4.474;2022-12-22T06:49:04;13.77;;;5.90;;
72611;SDS011;60655;52.182;4.474;2022-12-22T06:51:05;14.73;;;5.70;;
72611;SDS011;60655;52.182;4.474;2022-12-22T06:53:06;13.63;;;4.95;;
72611;SDS011;60655;52.182;4.474;2022-12-22T06:55:08;14.50;;;5.18;;
72611;SDS011;60655;52.182;4.474;2022-12-22T06:57:09;12.25;;;4.95;;
72611;SDS011;60655;52.182;4.474;2022-12-22T06:59:12;14.98;;;5.45;;
72611;SDS011;60655;52.182;4.474;2022-12-22T07:01:13;15.07;;;4.85;;
72611;SDS011;60655;52.182;4.474;2022-12-22T07:05:14;12.38;;;4.30;;
72611;SDS011;60655;52.182;4.474;2022-12-22T07:07:16;9.85;;;4.15;;
72611;SDS011;60655;52.182;4.474;2022-12-22T07:09:17;12.60;;;4.25;;
72611;SDS011;60655;52.182;4.474;2022-12-22T07:11:18;10.52;;;3.78;;
72611;SDS011;60655;52.182;4.474;2022-12-22T07:15:20;9.88;;;3.58;;
72611;SDS011;60655;52.182;4.474;2022-12-22T07:17:21;9.88;;;3.65;;
72611;SDS011;60655;52.182;4.474;2022-12-22T07:19:22;14.25;;;4.13;;
72611;SDS011;60655;52.182;4.474;2022-12-22T07:23:24;8.98;;;3.03;;
72611;SDS011;60655;52.182;4.474;2022-12-22T07:25:25;11.82;;;3.20;;
72611;SDS011;60655;52.182;4.474;2022-12-22T07:29:27;9.43;;;3.45;;
72611;SDS011;60655;52.182;4.474;2022-12-22T07:33:28;11.10;;;3.88;;
72611;SDS011;60655;52.182;4.474;2022-12-22T07:35:30;11.35;;;3.72;;
72611;SDS011;60655;52.182;4.474;2022-12-22T07:39:31;8.80;;;2.78;;
72611;SDS011;60655;52.182;4.474;2022-12-22T07:43:52;8.93;;;3.13;;
72611;SDS011;60655;52.182;4.474;2022-12-22T07:45:54;8.18;;;3.10;;
72611;SDS011;60655;52.182;4.474;2022-12-22T07:50:00;11.43;;;3.38;;
72611;SDS011;60655;52.182;4.474;2022-12-22T07:52:19;11.95;;;4.93;;
72611;SDS011;60655;52.182;4.474;2022-12-22T07:56:21;10.55;;;3.10;;
72611;SDS011;60655;52.182;4.474;2022-12-22T08:00:23;7.43;;;2.65;;
72611;SDS011;60655;52.182;4.474;2022-12-22T08:02:24;6.75;;;2.53;;
72611;SDS011;60655;52.182;4.474;2022-12-22T08:06:27;7.55;;;2.50;;
72611;SDS011;60655;52.182;4.474;2022-12-22T08:08:28;5.20;;;1.92;;
72611;SDS011;60655;52.182;4.474;2022-12-22T08:12:29;5.90;;;2.20;;
72611;SDS011;60655;52.182;4.474;2022-12-22T08:14:32;10.00;;;2.38;;
72611;SDS011;60655;52.182;4.474;2022-12-22T08:18:34;9.75;;;2.30;;
72611;SDS011;60655;52.182;4.474;2022-12-22T08:20:35;10.38;;;2.13;;
72611;SDS011;60655;52.182;4.474;2022-12-22T08:24:37;6.07;;;1.90;;
72611;SDS011;60655;52.182;4.474;2022-12-22T08:29:06;6.93;;;1.95;;
72611;SDS011;60655;52.182;4.474;2022-12-22T08:31:19;6.57;;;2.38;;
72611;SDS011;60655;52.182;4.474;2022-12-22T08:33:24;10.68;;;3.13;;
72611;SDS011;60655;52.182;4.474;2022-12-22T08:35:25;9.98;;;2.22;;
72611;SDS011;60655;52.182;4.474;2022-12-22T08:39:29;8.88;;;1.88;;
72611;SDS011;60655;52.182;4.474;2022-12-22T08:41:34;10.13;;;2.03;;
72611;SDS011;60655;52.182;4.474;2022-12-22T08:43:51;5.90;;;2.08;;
72611;SDS011;60655;52.182;4.474;2022-12-22T08:47:53;5.00;;;1.50;;
72611;SDS011;60655;52.182;4.474;2022-12-22T08:49:54;6.85;;;2.10;;
72611;SDS011;60655;52.182;4.474;2022-12-22T08:53:55;5.72;;;1.75;;
72611;SDS011;60655;52.182;4.474;2022-12-22T08:57:57;12.82;;;2.30;;
72611;SDS011;60655;52.182;4.474;2022-12-22T09:01:59;12.52;;;2.55;;
72611;SDS011;60655;52.182;4.474;2022-12-22T09:04:04;5.82;;;1.90;;
72611;SDS011;60655;52.182;4.474;2022-12-22T09:06:08;7.75;;;2.33;;
72611;SDS011;60655;52.182;4.474;2022-12-22T09:10:10;5.97;;;1.88;;
72611;SDS011;60655;52.182;4.474;2022-12-22T09:12:11;6.90;;;1.80;;
72611;SDS011;60655;52.182;4.474;2022-12-22T09:14:13;7.72;;;1.85;;
72611;SDS011;60655;52.182;4.474;2022-12-22T09:16:14;10.65;;;1.92;;
72611;SDS011;60655;52.182;4.474;2022-12-22T09:20:15;6.93;;;1.77;;
72611;SDS011;60655;52.182;4.474;2022-12-22T09:22:17;10.02;;;1.88;;
72611;SDS011;60655;52.182;4.474;2022-12-22T09:24:18;8.57;;;2.00;;
72611;SDS011;60655;52.182;4.474;2022-12-22T09:28:21;10.05;;;1.55;;
72611;SDS011;60655;52.182;4.474;2022-12-22T09:30:22;7.20;;;1.83;;
72611;SDS011;60655;52.182;4.474;2022-12-22T09:34:23;8.18;;;1.60;;
72611;SDS011;60655;52.182;4.474;2022-12-22T09:38:26;6.80;;;1.60;;
72611;SDS011;60655;52.182;4.474;2022-12-22T09:40:30;9.75;;;1.88;;
72611;SDS011;60655;52.182;4.474;2022-12-22T09:42:32;12.85;;;2.00;;
72611;SDS011;60655;52.182;4.474;2022-12-22T09:44:39;7.93;;;1.70;;
72611;SDS011;60655;52.182;4.474;2022-12-22T09:46:44;10.15;;;1.92;;
72611;SDS011;60655;52.182;4.474;2022-12-22T09:48:45;18.42;;;2.17;;
72611;SDS011;60655;52.182;4.474;2022-12-22T09:50:46;8.32;;;1.90;;
72611;SDS011;60655;52.182;4.474;2022-12-22T09:52:55;17.52;;;2.20;;
72611;SDS011;60655;52.182;4.474;2022-12-22T09:55:02;6.30;;;1.45;;
72611;SDS011;60655;52.182;4.474;2022-12-22T09:57:13;8.27;;;1.80;;
72611;SDS011;60655;52.182;4.474;2022-12-22T09:59:15;7.03;;;1.73;;
72611;SDS011;60655;52.182;4.474;2022-12-22T10:04:05;7.63;;;1.30;;
72611;SDS011;60655;52.182;4.474;2022-12-22T10:08:47;12.52;;;4.72;;
72611;SDS011;60655;52.182;4.474;2022-12-22T10:10:51;5.97;;;1.25;;
72611;SDS011;60655;52.182;4.474;2022-12-22T10:12:54;5.47;;;1.33;;
72611;SDS011;60655;52.182;4.474;2022-12-22T10:15:00;6.30;;;1.50;;
72611;SDS011;60655;52.182;4.474;2022-12-22T10:17:15;7.57;;;1.52;;
72611;SDS011;60655;52.182;4.474;2022-12-22T10:19:21;11.75;;;2.22;;
72611;SDS011;60655;52.182;4.474;2022-12-22T10:21:22;6.78;;;1.15;;
72611;SDS011;60655;52.182;4.474;2022-12-22T10:23:26;10.05;;;1.48;;
72611;SDS011;60655;52.182;4.474;2022-12-22T10:25:34;7.85;;;1.40;;
72611;SDS011;60655;52.182;4.474;2022-12-22T10:27:38;7.82;;;1.70;;
72611;SDS011;60655;52.182;4.474;2022-12-22T10:29:39;6.80;;;1.58;;
72611;SDS011;60655;52.182;4.474;2022-12-22T10:31:56;8.18;;;1.88;;
72611;SDS011;60655;52.182;4.474;2022-12-22T10:34:16;7.28;;;1.52;;
72611;SDS011;60655;52.182;4.474;2022-12-22T10:36:22;6.65;;;1.90;;
72611;SDS011;60655;52.182;4.474;2022-12-22T10:40:31;8.55;;;2.00;;
72611;SDS011;60655;52.182;4.474;2022-12-22T10:42:43;12.05;;;2.25;;
72611;SDS011;60655;52.182;4.474;2022-12-22T10:44:53;10.40;;;2.80;;
72611;SDS011;60655;52.182;4.474;2022-12-22T10:46:54;10.18;;;2.25;;
72611;SDS011;60655;52.182;4.474;2022-12-22T10:49:43;10.30;;;2.35;;
72611;SDS011;60655;52.182;4.474;2022-12-22T10:51:23;9.40;;;2.10;;
72611;SDS011;60655;52.182;4.474;2022-12-22T10:56:06;8.43;;;2.10;;
72611;SDS011;60655;52.182;4.474;2022-12-22T11:00:43;6.75;;;1.70;;
72611;SDS011;60655;52.182;4.474;2022-12-22T11:02:37;5.70;;;1.60;;
72611;SDS011;60655;52.182;4.474;2022-12-22T11:07:06;7.53;;;1.90;;
72611;SDS011;60655;52.182;4.474;2022-12-22T11:09:13;5.03;;;1.58;;
72611;SDS011;60655;52.182;4.474;2022-12-22T11:11:48;6.05;;;1.65;;
72611;SDS011;60655;52.182;4.474;2022-12-22T11:14:12;6.00;;;1.55;;
72611;SDS011;60655;52.182;4.474;2022-12-22T11:18:52;5.60;;;1.63;;
72611;SDS011;60655;52.182;4.474;2022-12-22T11:23:18;11.57;;;1.70;;
72611;SDS011;60655;52.182;4.474;2022-12-22T11:27:58;6.50;;;2.00;;
72611;SDS011;60655;52.182;4.474;2022-12-22T11:30:07;7.00;;;2.13;;
72611;SDS011;60655;52.182;4.474;2022-12-22T11:32:18;9.30;;;2.80;;
72611;SDS011;60655;52.182;4.474;2022-12-22T11:34:46;11.52;;;2.92;;
72611;SDS011;60655;52.182;4.474;2022-12-22T11:37:09;10.82;;;3.97;;
72611;SDS011;60655;52.182;4.474;2022-12-22T11:39:39;10.35;;;4.05;;
72611;SDS011;60655;52.182;4.474;2022-12-22T11:44:36;11.20;;;5.00;;
72611;SDS011;60655;52.182;4.474;2022-12-22T11:46:51;11.10;;;4.57;;
72611;SDS011;60655;52.182;4.474;2022-12-22T11:49:04;12.85;;;4.40;;
72611;SDS011;60655;52.182;4.474;2022-12-22T11:51:19;14.82;;;5.15;;
72611;SDS011;60655;52.182;4.474;2022-12-22T11:56:05;15.68;;;5.63;;
72611;SDS011;60655;52.182;4.474;2022-12-22T12:00:27;11.85;;;5.57;;
72611;SDS011;60655;52.182;4.474;2022-12-22T12:07:53;11.43;;;4.00;;
72611;SDS011;60655;52.182;4.474;2022-12-22T12:12:26;11.40;;;4.30;;
72611;SDS011;60655;52.182;4.474;2022-12-22T12:15:06;11.65;;;4.40;;
72611;SDS011;60655;52.182;4.474;2022-12-22T12:22:07;16.48;;;5.97;;
72611;SDS011;60655;52.182;4.474;2022-12-22T12:27:03;13.90;;;6.55;;
72611;SDS011;60655;52.182;4.474;2022-12-22T12:29:19;16.23;;;5.50;;
72611;SDS011;60655;52.182;4.474;2022-12-22T12:31:41;13.13;;;5.70;;
72611;SDS011;60655;52.182;4.474;2022-12-22T12:33:50;15.57;;;5.65;;
72611;SDS011;60655;52.182;4.474;2022-12-22T12:38:10;12.52;;;5.40;;
72611;SDS011;60655;52.182;4.474;2022-12-22T12:43:01;16.40;;;7.07;;
72611;SDS011;60655;52.182;4.474;2022-12-22T12:45:03;15.65;;;6.97;;
72611;SDS011;60655;52.182;4.474;2022-12-22T12:47:28;17.88;;;7.15;;
72611;SDS011;60655;52.182;4.474;2022-12-22T12:51:53;19.73;;;8.13;;
72611;SDS011;60655;52.182;4.474;2022-12-22T12:59:08;17.10;;;7.38;;
72611;SDS011;60655;52.182;4.474;2022-12-22T13:01:53;16.50;;;7.90;;
72611;SDS011;60655;52.182;4.474;2022-12-22T13:05:32;18.00;;;7.97;;
72611;SDS011;60655;52.182;4.474;2022-12-22T13:10:21;17.70;;;8.60;;
72611;SDS011;60655;52.182;4.474;2022-12-22T13:14:57;20.40;;;7.88;;
72611;SDS011;60655;52.182;4.474;2022-12-22T13:19:32;24.45;;;9.00;;
72611;SDS011;60655;52.182;4.474;2022-12-22T13:21:38;24.67;;;9.02;;
72611;SDS011;60655;52.182;4.474;2022-12-22T13:23:44;24.05;;;8.88;;
72611;SDS011;60655;52.182;4.474;2022-12-22T13:28:21;25.13;;;10.02;;
72611;SDS011;60655;52.182;4.474;2022-12-22T13:30:23;21.88;;;9.65;;
72611;SDS011;60655;52.182;4.474;2022-12-22T13:32:31;16.77;;;8.18;;
72611;SDS011;60655;52.182;4.474;2022-12-22T13:37:14;23.58;;;8.15;;
72611;SDS011;60655;52.182;4.474;2022-12-22T13:39:18;17.40;;;7.95;;
72611;SDS011;60655;52.182;4.474;2022-12-22T13:41:19;20.80;;;8.43;;
72611;SDS011;60655;52.182;4.474;2022-12-22T13:43:21;27.15;;;9.45;;
72611;SDS011;60655;52.182;4.474;2022-12-22T13:47:40;22.70;;;9.25;;
72611;SDS011;60655;52.182;4.474;2022-12-22T13:49:42;23.58;;;9.27;;
72611;SDS011;60655;52.182;4.474;2022-12-22T13:51:44;25.90;;;10.07;;
72611;SDS011;60655;52.182;4.474;2022-12-22T13:53:47;22.52;;;9.30;;
72611;SDS011;60655;52.182;4.474;2022-12-22T13:55:51;25.55;;;9.80;;
72611;SDS011;60655;52.182;4.474;2022-12-22T13:57:52;22.15;;;8.75;;
72611;SDS011;60655;52.182;4.474;2022-12-22T13:59:55;23.95;;;8.98;;
72611;SDS011;60655;52.182;4.474;2022-12-22T14:02:30;24.30;;;9.80;;
72611;SDS011;60655;52.182;4.474;2022-12-22T14:04:23;23.40;;;9.27;;
72611;SDS011;60655;52.182;4.474;2022-12-22T14:06:28;27.70;;;10.00;;
72611;SDS011;60655;52.182;4.474;2022-12-22T14:08:37;23.25;;;10.65;;
72611;SDS011;60655;52.182;4.474;2022-12-22T14:10:39;26.23;;;11.27;;
72611;SDS011;60655;52.182;4.474;2022-12-22T14:12:43;26.02;;;10.65;;
72611;SDS011;60655;52.182;4.474;2022-12-22T14:14:46;26.42;;;10.80;;
72611;SDS011;60655;52.182;4.474;2022-12-22T14:16:49;26.58;;;11.70;;
72611;SDS011;60655;52.182;4.474;2022-12-22T14:18:52;25.42;;;11.82;;
72611;SDS011;60655;52.182;4.474;2022-12-22T14:20:53;24.33;;;10.55;;
72611;SDS011;60655;52.182;4.474;2022-12-22T14:23:17;29.95;;;11.18;;
72611;SDS011;60655;52.182;4.474;2022-12-22T14:25:52;29.17;;;11.20;;
72611;SDS011;60655;52.182;4.474;2022-12-22T14:27:47;30.02;;;12.18;;
72611;SDS011;60655;52.182;4.474;2022-12-22T14:29:51;28.02;;;10.93;;
72611;SDS011;60655;52.182;4.474;2022-12-22T14:31:53;25.45;;;10.60;;
72611;SDS011;60655;52.182;4.474;2022-12-22T14:34:22;24.38;;;9.95;;
72611;SDS011;60655;52.182;4.474;2022-12-22T14:36:25;26.90;;;10.73;;
72611;SDS011;60655;52.182;4.474;2022-12-22T14:38:26;23.50;;;11.05;;
72611;SDS011;60655;52.182;4.474;2022-12-22T14:42:41;26.30;;;10.20;;
72611;SDS011;60655;52.182;4.474;2022-12-22T14:44:43;31.08;;;13.20;;
72611;SDS011;60655;52.182;4.474;2022-12-22T14:47:34;21.67;;;10.63;;
72611;SDS011;60655;52.182;4.474;2022-12-22T14:49:19;28.02;;;11.95;;
72611;SDS011;60655;52.182;4.474;2022-12-22T14:51:20;26.73;;;10.70;;
72611;SDS011;60655;52.182;4.474;2022-12-22T14:53:23;23.80;;;9.68;;
72611;SDS011;60655;52.182;4.474;2022-12-22T14:55:30;25.92;;;11.27;;
72611;SDS011;60655;52.182;4.474;2022-12-22T14:57:37;23.27;;;9.90;;
72611;SDS011;60655;52.182;4.474;2022-12-22T14:59:40;25.30;;;10.05;;
72611;SDS011;60655;52.182;4.474;2022-12-22T15:01:41;27.95;;;10.93;;
72611;SDS011;60655;52.182;4.474;2022-12-22T15:10:41;27.33;;;10.88;;
72611;SDS011;60655;52.182;4.474;2022-12-22T15:12:44;30.25;;;12.10;;
72611;SDS011;60655;52.182;4.474;2022-12-22T15:14:46;31.00;;;12.15;;
72611;SDS011;60655;52.182;4.474;2022-12-22T15:16:48;25.08;;;11.27;;